Time;durP1;ratioP1;P1;durP2;ratioP2;P2;SDS_P1;SDS_P2;PMS_P1;PMS_P2;Temp;Humidity;BMP_temperature;BMP_pressure;BME280_temperature;BME280_humidity;BME280_pressure;Samples;Min_cycle;Max_cycle;Signal;HPM_P1;HPM_P2
2023/02/26 00:00:14;;;;;;;17.02;7.95;;;;;;;10.28;71.37;99036.63;5028905;28;20124;-38
2023/02/26 00:02:44;;;;;;;17.55;8.20;;;;;;;10.59;70.33;99067.25;5028694;28;20048;-36
2023/02/26 00:05:11;;;;;;;15.48;8.57;;;;;;;10.62;69.51;99060.63;5028859;28;20040;-38
2023/02/26 00:07:39;;;;;;;19.38;7.80;;;;;;;10.95;68.74;99064.31;5028498;28;20496;-40
2023/02/26 00:10:07;;;;;;;19.95;9.02;;;;;;;11.00;68.23;99080.41;5028770;28;20107;-39
2023/02/26 00:12:33;;;;;;;15.55;7.40;;;;;;;11.08;67.80;99074.63;5028657;28;20052;-41
2023/02/26 00:15:01;;;;;;;17.48;7.63;;;;;;;11.17;67.62;99081.16;5028518;28;20084;-39
2023/02/26 00:17:39;;;;;;;;;;;;;;;11.12;68.45;99083.75;5028624;28;20032;-39
2023/02/26 00:20:06;;;;;;;17.48;7.80;;;;;;;11.12;68.15;99070.41;5027257;28;19913;-38
2023/02/26 00:22:35;;;;;;;18.35;7.53;;;;;;;11.25;67.90;99079.91;5027702;28;20040;-37
2023/02/26 00:25:00;;;;;;;17.50;6.50;;;;;;;11.10;68.28;99067.19;5027197;28;20040;-40
2023/02/26 00:27:26;;;;;;;13.43;6.50;;;;;;;11.49;67.07;99095.72;5028155;28;20409;-39
2023/02/26 00:29:52;;;;;;;17.65;6.60;;;;;;;11.50;67.03;99084.75;5028241;28;20049;-39
2023/02/26 00:32:20;;;;;;;16.10;6.50;;;;;;;11.52;67.33;99085.31;5028073;28;20084;-37
2023/02/26 00:34:46;;;;;;;18.92;8.13;;;;;;;11.37;67.02;99066.47;5028184;28;20091;-39
2023/02/26 00:37:32;;;;;;;17.58;7.85;;;;;;;11.06;67.68;99077.53;5028378;28;20524;-31
2023/02/26 00:40:07;;;;;;;14.57;8.57;;;;;;;10.82;66.87;99092.94;5026889;28;20056;-38
2023/02/26 00:42:35;;;;;;;19.13;9.73;;;;;;;10.27;69.22;99085.63;5027763;28;20061;-39
2023/02/26 00:45:01;;;;;;;24.80;12.00;;;;;;;10.00;69.79;99075.59;5028391;28;20581;-39
2023/02/26 00:47:30;;;;;;;24.02;11.77;;;;;;;10.04;70.23;99071.41;5028076;28;20078;-34
2023/02/26 00:50:01;;;;;;;20.35;10.52;;;;;;;9.81;70.96;99055.53;5028199;28;20036;-40
2023/02/26 00:52:32;;;;;;;20.35;10.45;;;;;;;9.96;70.99;99055.81;5027726;28;20076;-35
2023/02/26 00:54:58;;;;;;;22.92;9.40;;;;;;;9.99;71.59;99047.34;5039722;28;20481;-41
2023/02/26 00:57:23;;;;;;;24.08;10.50;;;;;;;10.10;71.05;99042.19;5047961;28;20028;-37
2023/02/26 00:59:49;;;;;;;19.05;10.05;;;;;;;10.30;71.51;99055.06;5048163;28;20029;-39
2023/02/26 01:02:14;;;;;;;21.70;8.98;;;;;;;10.47;69.81;99052.41;5047731;28;20707;-34
2023/02/26 01:04:40;;;;;;;17.88;9.88;;;;;;;10.59;70.36;99061.94;5047762;28;20033;-39
2023/02/26 01:07:08;;;;;;;21.40;8.98;;;;;;;10.37;70.47;99045.06;5047682;28;20032;-41
2023/02/26 01:09:35;;;;;;;17.63;8.57;;;;;;;10.59;70.18;99056.59;5047380;28;20158;-34
2023/02/26 01:12:07;;;;;;;19.85;9.27;;;;;;;10.51;69.82;99037.56;5048049;28;20111;-40
2023/02/26 01:14:34;;;;;;;19.23;8.63;;;;;;;10.65;69.67;99049.50;5047584;28;20041;-34
2023/02/26 01:17:11;;;;;;;14.82;8.07;;;;;;;10.66;69.14;99035.09;5047753;28;20072;-40
2023/02/26 01:19:53;;;;;;;16.67;8.30;;;;;;;10.87;68.77;99052.22;5047606;28;20029;-38
2023/02/26 01:22:41;;;;;;;23.60;8.45;;;;;;;10.68;68.94;99030.31;5047718;28;20048;-35
2023/02/26 01:25:15;;;;;;;23.30;8.73;;;;;;;10.81;69.00;99054.00;5047770;28;20028;-37
2023/02/26 01:27:40;;;;;;;18.05;9.20;;;;;;;10.79;68.02;99034.75;5047573;28;20037;-40
2023/02/26 01:30:07;;;;;;;21.73;10.60;;;;;;;10.94;67.37;99041.38;5047402;28;20025;-38
2023/02/26 01:32:48;;;;;;;18.42;8.57;;;;;;;11.08;66.60;99055.97;5047455;28;20024;-38
2023/02/26 01:35:35;;;;;;;22.20;9.52;;;;;;;11.31;64.92;99059.44;5050485;28;20029;-43
2023/02/26 01:38:26;;;;;;;16.38;8.57;;;;;;;11.43;64.07;99057.47;5050169;28;20052;-39
2023/02/26 01:41:14;;;;;;;15.90;6.30;;;;;;;11.84;60.79;99060.56;5051110;28;20100;-37
2023/02/26 01:44:09;;;;;;;17.38;7.03;;;;;;;12.45;59.21;99045.09;5050714;28;20053;-38
2023/02/26 01:46:53;;;;;;;15.05;6.28;;;;;;;12.52;58.83;99039.53;5051469;28;20033;-40
2023/02/26 01:49:19;;;;;;;15.70;5.93;;;;;;;12.59;58.39;99042.00;5049750;28;20036;-36
2023/02/26 01:51:51;;;;;;;15.43;5.95;;;;;;;12.57;57.67;99020.06;5051193;28;20040;-41
2023/02/26 01:54:21;;;;;;;12.63;5.72;;;;;;;12.76;57.95;99031.94;5051350;28;20033;-40
2023/02/26 01:56:52;;;;;;;15.35;5.32;;;;;;;13.10;57.67;99028.94;5051069;28;20068;-33
2023/02/26 01:59:23;;;;;;;14.38;6.07;;;;;;;13.36;58.22;99037.06;5050817;28;20489;-39
2023/02/26 02:01:49;;;;;;;12.45;5.50;;;;;;;13.56;58.32;99042.50;5051328;28;20090;-38
2023/02/26 02:04:15;;;;;;;14.10;5.55;;;;;;;13.85;57.49;99039.34;5051151;28;20036;-34
2023/02/26 02:06:42;;;;;;;14.65;5.15;;;;;;;14.07;57.03;99052.53;5051249;28;20471;-36
2023/02/26 02:09:08;;;;;;;12.50;5.30;;;;;;;14.23;57.08;99064.06;5050794;28;20045;-35
2023/02/26 02:11:54;;;;;;;16.17;5.72;;;;;;;14.06;57.64;99029.50;5050398;28;20028;-35
2023/02/26 02:14:31;;;;;;;13.43;4.47;;;;;;;14.21;57.59;99058.19;5049738;28;20029;-39
2023/02/26 02:17:23;;;;;;;15.63;5.63;;;;;;;14.36;57.50;99049.31;5051065;28;20429;-32
2023/02/26 02:20:10;;;;;;;16.77;6.03;;;;;;;14.38;57.58;99045.28;5050217;28;20119;-34
2023/02/26 02:22:47;;;;;;;10.20;5.03;;;;;;;14.40;57.14;99029.72;5050981;28;20053;-34
2023/02/26 02:25:32;;;;;;;13.45;5.40;;;;;;;14.51;57.30;99053.91;5050525;28;20109;-39
2023/02/26 02:28:00;;;;;;;12.57;5.10;;;;;;;14.53;57.46;99043.69;5050581;28;20034;-38
2023/02/26 02:31:05;;;;;;;17.17;5.97;;;;;;;14.59;57.74;99048.03;5050581;28;20025;-37
2023/02/26 02:33:44;;;;;;;16.85;6.22;;;;;;;14.55;58.04;99054.97;5050153;28;20124;-37
2023/02/26 02:36:17;;;;;;;11.82;4.75;;;;;;;14.60;57.47;99061.16;5050609;28;20497;-37
2023/02/26 02:38:53;;;;;;;17.25;5.10;;;;;;;14.72;56.87;99071.59;5050154;28;20116;-35
2023/02/26 02:41:27;;;;;;;15.07;5.53;;;;;;;14.60;57.46;99053.09;5050110;28;20128;-34
2023/02/26 02:43:53;;;;;;;18.58;5.68;;;;;;;14.67;56.89;99068.94;5050337;28;20123;-36
2023/02/26 02:46:30;;;;;;;12.73;4.45;;;;;;;14.81;56.63;99088.78;5049242;28;20044;-35
2023/02/26 02:49:06;;;;;;;13.10;5.20;;;;;;;14.66;56.98;99064.63;5050291;28;20033;-37
2023/02/26 02:51:36;;;;;;;12.98;5.47;;;;;;;14.73;57.02;99078.59;5049604;28;20044;-34
2023/02/26 02:54:07;;;;;;;16.85;5.50;;;;;;;14.85;56.75;99087.16;5050148;28;20140;-37
2023/02/26 02:56:41;;;;;;;15.15;6.32;;;;;;;14.92;57.00;99073.47;5050291;28;20033;-36
2023/02/26 02:59:25;;;;;;;16.77;6.80;;;;;;;14.78;57.62;99089.31;5050127;28;20037;-36
2023/02/26 03:02:10;;;;;;;12.65;4.75;;;;;;;14.75;57.55;99094.41;5049668;28;20557;-38
2023/02/26 03:04:36;;;;;;;15.57;6.18;;;;;;;14.82;57.82;99098.44;5049808;28;20422;-37
2023/02/26 03:07:03;;;;;;;16.90;5.78;;;;;;;14.78;58.05;99081.25;5049736;28;20512;-36
2023/02/26 03:09:31;;;;;;;13.50;5.10;;;;;;;14.76;58.01;99086.09;5049637;28;20501;-33
2023/02/26 03:11:56;;;;;;;14.10;5.22;;;;;;;14.75;57.89;99089.88;5049496;28;20207;-33
2023/02/26 03:14:24;;;;;;;14.70;5.22;;;;;;;14.68;57.53;99075.91;5049376;28;20741;-37
2023/02/26 03:16:58;;;;;;;11.43;4.90;;;;;;;14.68;58.47;99094.69;5049684;28;20033;-34
2023/02/26 03:19:33;;;;;;;16.70;5.40;;;;;;;14.58;58.69;99083.97;5049644;28;20060;-37
2023/02/26 03:21:58;;;;;;;12.60;4.95;;;;;;;14.63;58.73;99086.66;5049645;28;20104;-33
2023/02/26 03:24:30;;;;;;;12.82;4.88;;;;;;;14.66;59.55;99096.84;5049688;28;20461;-34
2023/02/26 03:27:00;;;;;;;14.88;5.68;;;;;;;14.55;60.70;99095.22;5049231;28;20029;-38
2023/02/26 03:29:37;;;;;;;18.10;5.78;;;;;;;14.46;61.80;99103.78;5049569;28;20032;-36
2023/02/26 03:32:28;;;;;;;10.20;5.18;;;;;;;14.50;62.22;99105.94;5049160;28;20032;-38
2023/02/26 03:35:18;;;;;;;13.85;4.85;;;;;;;14.31;64.01;99106.44;5049550;28;20024;-37
2023/02/26 03:38:00;;;;;;;13.35;5.40;;;;;;;14.24;64.87;99095.16;5049353;28;20115;-36
2023/02/26 03:40:38;;;;;;;16.20;4.90;;;;;;;14.25;66.29;99097.59;5049167;28;20094;-36
2023/02/26 03:43:22;;;;;;;;;;;;;;;14.07;67.89;99095.41;5048074;28;20102;-36
2023/02/26 03:45:52;;;;;;;18.65;4.82;;;;;;;13.88;68.97;99076.34;5048762;28;19916;-33
2023/02/26 03:48:26;;;;;;;13.00;4.72;;;;;;;13.84;68.91;99040.44;5049401;28;20056;-33
2023/02/26 03:50:56;;;;;;;12.50;4.90;;;;;;;13.99;69.34;99075.28;5049037;28;20032;-33
2023/02/26 03:53:26;;;;;;;19.33;6.28;;;;;;;13.99;69.27;99067.25;5048783;28;20107;-37
2023/02/26 03:56:27;;;;;;;16.50;5.60;;;;;;;14.18;69.01;99069.41;5048859;28;20080;-40
2023/02/26 03:58:52;;;;;;;13.30;5.05;;;;;;;13.99;70.01;99072.63;5048367;28;20041;-37
2023/02/26 04:01:25;;;;;;;13.18;5.43;;;;;;;13.99;70.89;99059.22;5048184;28;20090;-34
2023/02/26 04:04:06;;;;;;;13.80;4.65;;;;;;;13.85;71.32;99055.44;5048670;28;20599;-36
2023/02/26 04:06:33;;;;;;;16.27;6.22;;;;;;;13.92;72.40;99076.66;5048558;28;20441;-35
2023/02/26 04:09:00;;;;;;;18.35;6.28;;;;;;;13.79;72.50;99065.34;5048703;28;20032;-34
2023/02/26 04:11:26;;;;;;;19.17;7.63;;;;;;;13.81;72.91;99065.06;5048659;28;20061;-34
2023/02/26 04:13:52;;;;;;;12.05;5.93;;;;;;;13.84;73.36;99086.78;5048638;28;20021;-38
2023/02/26 04:16:18;;;;;;;28.42;4.35;;;;;;;13.78;73.99;99087.84;5048365;28;20036;-37
2023/02/26 04:18:43;;;;;;;15.82;7.25;;;;;;;13.84;73.90;99075.28;5048595;28;20025;-39
2023/02/26 04:21:22;;;;;;;23.60;7.22;;;;;;;13.86;73.84;99075.81;5048228;28;20029;-36
2023/02/26 04:23:50;;;;;;;17.30;5.55;;;;;;;13.80;73.63;99066.97;5048270;28;20029;-35
2023/02/26 04:26:16;;;;;;;19.30;7.13;;;;;;;13.69;74.50;99056.47;5048095;28;20060;-34
2023/02/26 04:28:41;;;;;;;20.73;7.05;;;;;;;13.71;74.53;99075.75;5048310;28;20516;-37
2023/02/26 04:31:09;;;;;;;15.13;5.82;;;;;;;13.85;73.72;99082.22;5047906;28;20029;-37
2023/02/26 04:33:35;;;;;;;26.83;7.03;;;;;;;13.59;73.44;99050.03;5047842;28;20029;-33
2023/02/26 04:36:01;;;;;;;18.35;6.40;;;;;;;13.72;73.44;99056.75;5048096;28;20041;-37
2023/02/26 04:38:26;;;;;;;18.02;6.65;;;;;;;13.79;73.23;99076.09;5048227;28;20040;-35
2023/02/26 04:40:52;;;;;;;16.80;6.45;;;;;;;13.76;72.79;99062.41;5047862;28;20031;-42
2023/02/26 04:43:18;;;;;;;15.95;7.00;;;;;;;13.81;72.37;99065.06;5047984;28;20071;-36
2023/02/26 04:45:47;;;;;;;19.35;7.38;;;;;;;13.73;72.15;99062.91;5047974;28;20505;-40
2023/02/26 04:48:14;;;;;;;21.85;7.20;;;;;;;13.73;72.42;99081.66;5047578;28;20025;-39
2023/02/26 04:50:39;;;;;;;20.00;6.90;;;;;;;13.70;71.94;99063.44;5047688;28;20025;-36
2023/02/26 04:53:05;;;;;;;22.38;6.43;;;;;;;13.77;71.92;99096.16;5047574;28;20037;-36
2023/02/26 04:55:30;;;;;;;16.30;6.22;;;;;;;13.59;72.44;99063.41;5047407;28;20045;-39
2023/02/26 04:57:58;;;;;;;21.13;7.55;;;;;;;13.66;73.00;99068.53;5047576;28;20021;-36
2023/02/26 05:00:24;;;;;;;17.85;6.75;;;;;;;13.68;72.96;99087.03;5047638;28;20672;-35
2023/02/26 05:02:52;;;;;;;20.30;6.60;;;;;;;13.51;74.20;99096.06;5047626;28;20025;-38
2023/02/26 05:05:18;;;;;;;;;;;;;;;13.52;74.90;99099.56;5048137;28;20032;-33
2023/02/26 05:07:43;;;;;;;20.77;6.50;;;;;;;13.39;75.35;99095.47;5047732;28;19915;-34
2023/02/26 05:10:09;;;;;;;21.38;6.43;;;;;;;13.38;75.87;99100.03;5046964;28;20036;-38
2023/02/26 05:12:35;;;;;;;19.75;6.35;;;;;;;13.29;76.56;99100.75;5047558;28;20090;-38
2023/02/26 05:15:01;;;;;;;17.70;6.13;;;;;;;13.25;75.44;99101.25;5047346;28;20029;-37
2023/02/26 05:17:27;;;;;;;15.70;7.15;;;;;;;13.34;74.79;99100.81;5045695;28;20128;-35
2023/02/26 05:19:52;;;;;;;23.67;6.57;;;;;;;13.50;73.92;99101.69;5047575;28;20103;-36
2023/02/26 05:22:20;;;;;;;23.90;9.38;;;;;;;13.67;72.04;99094.25;5047902;28;20127;-35
2023/02/26 05:24:48;;;;;;;21.90;8.55;;;;;;;13.69;70.83;99094.81;5047575;28;20441;-39
2023/02/26 05:27:13;;;;;;;;;;;;;;;13.70;69.19;99098.28;5047788;28;20035;-36
2023/02/26 05:29:41;;;;;;;18.40;7.20;;;;;;;13.80;68.40;99101.00;5047430;28;19917;-39
2023/02/26 05:32:06;;;;;;;19.15;5.70;;;;;;;14.00;67.86;99109.09;5047849;28;20064;-36
2023/02/26 05:34:32;;;;;;;14.98;5.03;;;;;;;13.86;67.74;99094.59;5047587;28;20460;-39
2023/02/26 05:36:57;;;;;;;20.17;5.47;;;;;;;13.84;67.09;99077.97;5047984;28;20033;-35
2023/02/26 05:39:23;;;;;;;16.00;5.57;;;;;;;14.01;67.19;99107.19;5047257;28;20051;-39
2023/02/26 05:41:52;;;;;;;18.58;4.78;;;;;;;13.83;67.39;99084.38;5047166;28;20075;-35
2023/02/26 05:44:22;;;;;;;17.23;5.57;;;;;;;13.87;66.80;99096.19;5047275;28;20440;-38
2023/02/26 05:46:48;;;;;;;16.95;5.75;;;;;;;13.96;65.76;99093.81;5047651;28;20056;-33
2023/02/26 05:49:13;;;;;;;17.08;5.72;;;;;;;14.16;65.43;99104.56;5047279;28;20468;-35
2023/02/26 05:51:41;;;;;;;15.63;5.22;;;;;;;14.12;64.98;99108.03;5046976;28;20048;-39
2023/02/26 05:54:08;;;;;;;17.25;5.80;;;;;;;14.09;63.23;99090.59;5047225;28;20025;-33
2023/02/26 05:56:39;;;;;;;18.65;5.63;;;;;;;14.26;63.09;99118.00;5047030;28;20037;-36
2023/02/26 05:59:04;;;;;;;17.70;5.90;;;;;;;14.31;63.06;99113.69;5046982;28;20025;-33
2023/02/26 06:01:30;;;;;;;19.08;6.00;;;;;;;14.41;61.99;99121.75;5045679;28;20548;-33
2023/02/26 06:03:55;;;;;;;16.13;5.25;;;;;;;14.72;60.96;99135.22;5047121;28;20033;-36
2023/02/26 06:06:20;;;;;;;19.70;5.53;;;;;;;14.58;60.20;99121.53;5047265;28;20047;-40
2023/02/26 06:08:46;;;;;;;17.77;5.10;;;;;;;14.63;59.73;99143.81;5046881;28;20021;-38
2023/02/26 06:11:15;;;;;;;20.75;6.07;;;;;;;14.88;59.05;99157.50;5045699;28;20064;-34
2023/02/26 06:13:42;;;;;;;19.95;5.80;;;;;;;15.09;56.90;99169.81;5046584;28;20059;-39
2023/02/26 06:16:08;;;;;;;20.52;7.15;;;;;;;15.17;56.78;99171.16;5047251;28;20121;-41
2023/02/26 06:18:33;;;;;;;20.90;6.03;;;;;;;15.18;56.49;99173.56;5047041;28;20107;-38
2023/02/26 06:21:00;;;;;;;14.25;5.30;;;;;;;15.46;55.54;99184.78;5048031;28;20131;-38
2023/02/26 06:23:25;;;;;;;17.65;7.07;;;;;;;15.30;57.22;99165.19;5049997;28;20409;-38
2023/02/26 06:25:52;;;;;;;17.85;7.43;;;;;;;15.42;62.05;99175.66;5050220;28;20029;-38
2023/02/26 06:28:18;;;;;;;20.27;8.05;;;;;;;15.13;62.56;99165.50;5050346;28;20028;-37
2023/02/26 06:30:44;;;;;;;13.48;6.07;;;;;;;15.27;59.20;99184.56;5050252;28;20759;-39
2023/02/26 06:33:09;;;;;;;15.70;5.10;;;;;;;15.46;56.54;99160.59;5050410;28;20021;-35
2023/02/26 06:35:35;;;;;;;16.88;4.70;;;;;;;15.71;54.73;99177.72;5050114;28;20029;-38
2023/02/26 06:38:01;;;;;;;18.63;5.40;;;;;;;15.79;53.43;99171.81;5050295;28;20079;-37
2023/02/26 06:40:27;;;;;;;17.77;5.90;;;;;;;15.93;53.40;99175.50;5050236;28;20037;-39
2023/02/26 06:42:53;;;;;;;24.02;5.68;;;;;;;16.01;54.16;99164.19;5050238;28;20099;-35
2023/02/26 06:45:18;;;;;;;14.98;4.78;;;;;;;15.95;54.49;99180.63;5050213;28;20456;-38
2023/02/26 06:47:44;;;;;;;15.82;4.07;;;;;;;16.05;54.65;99180.56;5049958;28;20047;-40
2023/02/26 06:50:10;;;;;;;15.52;5.90;;;;;;;16.06;54.36;99172.22;5050021;28;20032;-40
2023/02/26 06:52:35;;;;;;;17.02;4.88;;;;;;;15.89;55.12;99179.03;5049406;28;20033;-39
2023/02/26 06:55:04;;;;;;;13.85;4.32;;;;;;;15.92;54.53;99162.38;5049947;28;20124;-38
2023/02/26 06:57:29;;;;;;;23.42;5.22;;;;;;;16.03;54.37;99183.53;5049354;28;20124;-40
2023/02/26 06:59:54;;;;;;;21.08;7.80;;;;;;;16.10;53.90;99174.34;5049704;28;20036;-39
2023/02/26 07:02:21;;;;;;;15.38;5.03;;;;;;;16.26;53.74;99189.34;5047435;28;20029;-35
2023/02/26 07:04:47;;;;;;;18.20;5.43;;;;;;;16.02;53.19;99165.81;5040476;28;20028;-39
2023/02/26 07:07:15;;;;;;;15.95;5.90;;;;;;;15.98;53.57;99172.81;5038721;28;20036;-38
2023/02/26 07:09:41;;;;;;;22.60;6.13;;;;;;;16.30;53.51;99190.38;5039727;28;20033;-37
2023/02/26 07:12:06;;;;;;;18.63;7.22;;;;;;;16.32;54.29;99192.81;5040976;28;20471;-38
2023/02/26 07:14:35;;;;;;;23.85;5.40;;;;;;;16.25;52.98;99187.75;5041285;28;20037;-40
2023/02/26 07:17:01;;;;;;;21.13;5.40;;;;;;;16.31;53.12;99178.56;5040734;28;20064;-35
2023/02/26 07:19:29;;;;;;;26.08;6.72;;;;;;;16.29;53.14;99164.56;5035523;28;20108;-36
2023/02/26 07:21:54;;;;;;;14.40;3.92;;;;;;;16.13;53.59;99165.75;5036211;28;20037;-41
2023/02/26 07:24:21;;;;;;;17.67;6.18;;;;;;;16.03;54.21;99164.72;5036156;28;20025;-42
2023/02/26 07:26:46;;;;;;;13.30;3.90;;;;;;;16.15;54.36;99195.88;5037006;28;20496;-35
2023/02/26 07:29:12;;;;;;;15.63;4.75;;;;;;;16.23;53.97;99185.31;5035747;28;20063;-36
2023/02/26 07:31:38;;;;;;;14.30;4.40;;;;;;;16.36;54.78;99208.09;5035872;28;20021;-37
2023/02/26 07:34:03;;;;;;;19.98;5.38;;;;;;;16.31;54.40;99208.16;5036902;28;20078;-37
2023/02/26 07:36:29;;;;;;;11.68;3.55;;;;;;;16.38;54.22;99221.28;5035902;28;20043;-35
2023/02/26 07:38:55;;;;;;;16.63;4.75;;;;;;;16.39;54.64;99199.50;5036487;28;20128;-37
2023/02/26 07:41:20;;;;;;;14.40;4.25;;;;;;;16.51;54.78;99220.69;5035883;28;20041;-41
2023/02/26 07:43:45;;;;;;;15.50;3.75;;;;;;;16.51;54.83;99212.63;5037183;28;20140;-40
2023/02/26 07:46:11;;;;;;;15.43;5.10;;;;;;;16.38;55.55;99216.72;5037145;28;20029;-35
2023/02/26 07:48:37;;;;;;;14.95;4.97;;;;;;;16.46;55.24;99208.03;5037313;28;20032;-36
2023/02/26 07:51:03;;;;;;;15.90;4.45;;;;;;;16.46;55.19;99191.09;5036345;28;20503;-34
2023/02/26 07:53:29;;;;;;;14.50;4.50;;;;;;;16.57;54.85;99203.41;5036037;28;20064;-39
2023/02/26 07:55:54;;;;;;;15.65;4.60;;;;;;;16.70;54.40;99223.53;5037180;28;20067;-38
2023/02/26 07:58:20;;;;;;;13.15;4.63;;;;;;;16.70;54.76;99209.25;5027120;28;20028;-40
2023/02/26 08:00:46;;;;;;;15.20;4.05;;;;;;;16.78;53.84;99230.19;5025822;28;20022;-41
2023/02/26 08:03:11;;;;;;;20.52;5.60;;;;;;;16.78;54.77;99224.81;5024739;28;20032;-41
2023/02/26 08:05:36;;;;;;;12.82;4.03;;;;;;;16.75;54.59;99206.53;5022044;28;20041;-35
2023/02/26 08:08:04;;;;;;;13.80;5.07;;;;;;;16.88;55.04;99219.38;5028288;28;20113;-37
2023/02/26 08:10:30;;;;;;;15.70;4.15;;;;;;;17.06;54.23;99209.78;5034091;28;20116;-38
2023/02/26 08:12:55;;;;;;;13.95;3.60;;;;;;;16.99;54.43;99209.31;5043560;28;20116;-39
2023/02/26 08:15:27;;;;;;;14.95;4.57;;;;;;;16.99;54.68;99198.56;5047899;28;20078;-40
2023/02/26 08:17:52;;;;;;;13.95;3.42;;;;;;;17.11;53.79;99211.66;5048653;28;20471;-35
2023/02/26 08:20:18;;;;;;;10.40;3.40;;;;;;;16.95;53.98;99192.13;5047604;28;20032;-35
2023/02/26 08:22:43;;;;;;;17.70;5.07;;;;;;;17.10;55.15;99201.97;5048090;28;20033;-38
2023/02/26 08:25:09;;;;;;;12.00;3.42;;;;;;;17.16;54.51;99190.88;5048009;28;20167;-40
2023/02/26 08:27:35;;;;;;;13.43;3.72;;;;;;;17.02;54.23;99181.81;5038434;28;20104;-35
2023/02/26 08:30:04;;;;;;;15.23;3.97;;;;;;;17.08;53.61;99180.72;5037015;28;20033;-37
2023/02/26 08:32:29;;;;;;;15.13;4.45;;;;;;;17.17;54.06;99195.16;5028881;28;20025;-33
2023/02/26 08:34:55;;;;;;;14.10;3.35;;;;;;;17.13;53.71;99199.50;5028057;28;20029;-38
2023/02/26 08:37:23;;;;;;;13.27;5.00;;;;;;;17.08;53.35;99199.56;5027448;28;20033;-35
2023/02/26 08:39:48;;;;;;;10.60;3.30;;;;;;;17.02;52.50;99197.97;5028062;28;20048;-37
2023/02/26 08:42:15;;;;;;;15.25;4.40;;;;;;;16.95;53.33;99197.50;5027363;28;20080;-35
2023/02/26 08:44:42;;;;;;;8.10;2.67;;;;;;;16.96;52.91;99186.47;5036844;28;20084;-40
2023/02/26 08:47:07;;;;;;;20.48;4.63;;;;;;;17.10;52.52;99186.63;5041811;28;20482;-34
2023/02/26 08:49:33;;;;;;;11.18;3.40;;;;;;;17.02;52.77;99165.66;5047446;28;20033;-38
2023/02/26 08:51:58;;;;;;;12.43;4.15;;;;;;;17.08;53.46;99186.09;5041010;28;20039;-37
2023/02/26 08:54:24;;;;;;;16.90;4.63;;;;;;;17.11;52.71;99147.81;5038567;28;20025;-33
2023/02/26 08:56:49;;;;;;;15.63;4.03;;;;;;;16.99;52.35;99160.84;5035625;28;20108;-35
2023/02/26 08:59:15;;;;;;;16.45;4.90;;;;;;;16.90;52.70;99171.44;5041907;28;20044;-36
2023/02/26 09:01:40;;;;;;;14.13;4.10;;;;;;;16.76;52.88;99157.78;5029590;28;20045;-34
2023/02/26 09:04:05;;;;;;;18.40;4.45;;;;;;;16.87;53.06;99175.47;5027024;28;20071;-36
2023/02/26 09:06:31;;;;;;;15.75;4.38;;;;;;;16.81;53.29;99187.38;5027235;28;20481;-33
2023/02/26 09:08:56;;;;;;;15.85;5.32;;;;;;;16.56;53.64;99155.25;5026917;28;20030;-36
2023/02/26 09:11:22;;;;;;;13.77;3.80;;;;;;;16.57;54.36;99135.31;5027370;28;20401;-34
2023/02/26 09:13:47;;;;;;;15.10;4.60;;;;;;;16.74;54.26;99143.81;5027104;28;20411;-32
2023/02/26 09:16:12;;;;;;;10.85;3.55;;;;;;;16.75;55.15;99182.28;5027357;28;20116;-32
2023/02/26 09:18:38;;;;;;;10.65;3.53;;;;;;;16.62;55.39;99172.97;5025332;28;20071;-34
2023/02/26 09:21:04;;;;;;;12.27;3.83;;;;;;;16.72;54.05;99167.50;5027083;28;20409;-32
2023/02/26 09:23:29;;;;;;;10.35;3.10;;;;;;;16.69;55.40;99173.44;5026932;28;20160;-35
2023/02/26 09:25:59;;;;;;;14.98;4.45;;;;;;;16.76;55.25;99173.94;5027096;28;20067;-32
2023/02/26 09:28:25;;;;;;;7.28;3.83;;;;;;;16.72;55.59;99180.97;5027308;28;20034;-32
2023/02/26 09:30:54;;;;;;;9.30;3.58;;;;;;;16.68;55.71;99171.84;5027093;28;20033;-33
2023/02/26 09:33:21;;;;;;;13.25;3.83;;;;;;;16.78;54.78;99181.75;5027186;28;20028;-35
2023/02/26 09:35:48;;;;;;;9.90;3.28;;;;;;;17.04;54.71;99198.50;5026646;28;20022;-32
2023/02/26 09:38:14;;;;;;;11.45;3.42;;;;;;;17.05;54.38;99208.19;5027105;28;20064;-32
2023/02/26 09:40:44;;;;;;;14.50;3.90;;;;;;;17.25;54.06;99186.47;5026902;28;20053;-32
2023/02/26 09:43:28;;;;;;;9.05;3.67;;;;;;;17.61;52.89;99187.97;5025507;28;20057;-34
2023/02/26 09:45:56;;;;;;;13.05;3.42;;;;;;;17.85;50.68;99188.00;5026753;28;20033;-34
2023/02/26 09:48:24;;;;;;;12.27;4.35;;;;;;;18.06;50.18;99175.88;5026851;28;20045;-34
2023/02/26 09:50:54;;;;;;;12.23;3.95;;;;;;;18.67;49.64;99193.09;5027224;28;20037;-32
2023/02/26 09:53:25;;;;;;;9.57;3.30;;;;;;;18.96;48.20;99183.19;5028772;28;20036;-33
2023/02/26 09:55:55;;;;;;;16.42;4.68;;;;;;;19.10;48.08;99191.34;5031614;28;20057;-33
2023/02/26 09:58:29;;;;;;;11.15;3.13;;;;;;;18.84;47.56;99165.56;5045875;28;20120;-33
2023/02/26 10:01:06;;;;;;;10.23;3.05;;;;;;;18.95;48.95;99176.22;5050847;28;20033;-33
2023/02/26 10:03:50;;;;;;;11.68;3.58;;;;;;;18.79;49.73;99160.25;5050521;28;20037;-35
2023/02/26 10:06:28;;;;;;;9.13;2.30;;;;;;;18.59;50.33;99147.03;5048756;28;20025;-36
2023/02/26 10:09:14;;;;;;;9.27;3.25;;;;;;;18.72;50.98;99162.50;5049858;28;20115;-31
2023/02/26 10:11:48;;;;;;;14.25;3.78;;;;;;;18.67;51.21;99158.00;5043858;28;20037;-32
2023/02/26 10:14:22;;;;;;;12.63;3.42;;;;;;;18.19;51.87;99165.47;5049944;28;20029;-31
2023/02/26 10:16:51;;;;;;;12.02;3.67;;;;;;;18.42;51.01;99142.97;5042671;28;20030;-32
2023/02/26 10:19:21;;;;;;;7.63;3.35;;;;;;;18.78;52.08;99153.22;5029206;28;20548;-33
2023/02/26 10:22:30;;;;;;;15.95;3.17;;;;;;;18.45;52.01;99158.59;5030554;28;20029;-30
2023/02/26 10:25:08;;;;;;;10.38;3.88;;;;;;;18.61;51.51;99151.06;5029476;28;20043;-30
2023/02/26 10:27:43;;;;;;;14.25;4.07;;;;;;;18.66;51.35;99153.66;5029858;28;20025;-34
2023/02/26 10:30:27;;;;;;;12.60;3.75;;;;;;;18.76;50.19;99139.19;5029724;28;20033;-31
2023/02/26 10:33:05;;;;;;;12.18;3.25;;;;;;;19.23;49.23;99156.25;5030130;28;20029;-30
2023/02/26 10:35:41;;;;;;;15.82;3.67;;;;;;;19.13;49.84;99156.44;5029890;28;20037;-32
2023/02/26 10:38:19;;;;;;;19.45;3.85;;;;;;;19.33;49.92;99149.84;5029649;28;20033;-31
2023/02/26 10:41:10;;;;;;;14.18;3.63;;;;;;;19.10;49.20;99138.09;5029576;28;20030;-31
2023/02/26 10:44:04;;;;;;;9.27;3.25;;;;;;;18.71;49.76;99144.69;5039009;28;20041;-31
2023/02/26 10:46:44;;;;;;;14.60;3.40;;;;;;;18.96;49.84;99173.22;5037924;28;20490;-31
2023/02/26 10:50:14;;;;;;;16.23;4.63;;;;;;;19.12;48.69;99157.50;5038423;28;20030;-33
2023/02/26 10:52:44;;;;;;;15.13;3.60;;;;;;;19.07;48.32;99163.03;5025871;28;20045;-34
2023/02/26 10:55:32;;;;;;;19.90;4.40;;;;;;;19.23;48.86;99188.69;5038104;28;20065;-30
2023/02/26 10:58:03;;;;;;;;;;;;;;;19.28;48.25;99172.34;5039563;28;20474;-29
2023/02/26 11:00:28;;;;;;;11.48;3.28;;;;;;;19.02;49.21;99133.38;5037480;28;19938;-29
2023/02/26 11:02:55;;;;;;;12.77;3.97;;;;;;;19.17;48.97;99130.41;5038604;28;20469;-32
2023/02/26 11:05:25;;;;;;;11.43;3.83;;;;;;;19.00;48.74;99119.38;5037030;28;20056;-29
2023/02/26 11:07:59;;;;;;;16.85;3.90;;;;;;;18.74;48.89;99124.41;5038608;28;20787;-30
2023/02/26 11:10:35;;;;;;;18.60;4.13;;;;;;;18.54;49.43;99147.94;5039801;28;20132;-29
2023/02/26 11:13:03;;;;;;;13.35;3.50;;;;;;;18.90;48.98;99163.59;5035823;28;20038;-31
2023/02/26 11:15:29;;;;;;;12.65;3.03;;;;;;;19.35;47.95;99136.03;5034862;28;20474;-30
2023/02/26 11:17:58;;;;;;;15.15;4.03;;;;;;;19.20;47.61;99154.13;5029184;28;20041;-30
2023/02/26 11:20:33;;;;;;;12.73;3.17;;;;;;;19.21;48.49;99126.00;5029110;28;20029;-29
2023/02/26 11:23:01;;;;;;;10.30;3.20;;;;;;;19.08;47.91;99132.19;5028948;28;20037;-30
2023/02/26 11:25:30;;;;;;;13.40;3.80;;;;;;;19.02;48.08;99127.97;5028660;28;20052;-30
2023/02/26 11:28:05;;;;;;;14.57;3.40;;;;;;;18.94;48.15;99150.28;5029120;28;20091;-30
2023/02/26 11:30:36;;;;;;;13.82;3.45;;;;;;;19.05;47.32;99136.28;5029237;28;20404;-30
2023/02/26 11:33:33;;;;;;;8.48;3.20;;;;;;;19.30;48.33;99149.66;5029023;28;20032;-30
2023/02/26 11:36:01;;;;;;;12.00;3.83;;;;;;;18.97;48.20;99130.78;5028231;28;20045;-30
2023/02/26 11:38:28;;;;;;;12.18;3.40;;;;;;;18.91;48.21;99162.47;5028719;28;20040;-30
2023/02/26 11:40:56;;;;;;;15.82;3.67;;;;;;;18.82;48.37;99129.94;5027584;28;20060;-29